createdAt,value
2018-02-18T00:02:24.271Z,31.58
2018-02-18T00:04:52.571Z,33.40
2018-02-18T00:07:20.596Z,32.67
2018-02-18T00:09:48.931Z,31.87
2018-02-18T00:12:18.010Z,32.42
2018-02-18T00:14:51.910Z,32.10
2018-02-18T00:17:20.070Z,32.35
2018-02-18T00:19:48.050Z,30.48
2018-02-18T00:22:16.251Z,32.50
2018-02-18T00:24:45.330Z,29.15
2018-02-18T00:27:13.490Z,33.80
2018-02-18T00:29:42.370Z,32.88
2018-02-18T00:32:10.450Z,33.35
2018-02-18T00:34:38.890Z,31.55
2018-02-18T00:37:07.650Z,33.58
2018-02-18T00:39:37.017Z,31.35
2018-02-18T00:42:05.610Z,34.75
2018-02-18T00:44:34.211Z,32.63
2018-02-18T00:47:03.571Z,33.50
2018-02-18T00:49:32.050Z,34.47
2018-02-18T00:52:00.573Z,34.92
2018-02-18T00:54:29.730Z,36.30
2018-02-18T00:56:58.011Z,34.90
2018-02-18T00:59:26.511Z,34.78
2018-02-18T01:01:54.770Z,32.75
2018-02-18T01:04:23.013Z,33.35
2018-02-18T01:06:51.530Z,33.42
2018-02-18T01:09:19.690Z,33.35
2018-02-18T01:11:47.831Z,31.87
2018-02-18T01:14:16.151Z,33.47
2018-02-18T01:16:44.450Z,33.40
2018-02-18T01:19:13.309Z,31.25
2018-02-18T01:21:41.510Z,30.62
2018-02-18T01:24:09.750Z,34.03
2018-02-18T01:26:37.950Z,33.40
2018-02-18T01:29:06.210Z,32.40
2018-02-18T01:31:34.390Z,33.45
2018-02-18T01:34:02.609Z,32.38
2018-02-18T01:36:30.850Z,32.40
2018-02-18T01:38:59.010Z,34.17
2018-02-18T01:41:27.910Z,31.62
2018-02-18T01:43:56.031Z,32.40
2018-02-18T01:46:24.250Z,31.02
2018-02-18T01:48:52.711Z,31.80
2018-02-18T01:51:21.209Z,32.08
2018-02-18T01:53:49.430Z,31.58
2018-02-18T01:56:17.970Z,34.42
2018-02-18T01:58:46.430Z,33.00
2018-02-18T02:01:14.489Z,34.67
2018-02-18T02:03:42.889Z,34.17
2018-02-18T02:06:11.514Z,34.22
2018-02-18T02:08:39.771Z,33.60
2018-02-18T02:11:08.950Z,33.67
2018-02-18T02:13:37.971Z,32.78
2018-02-18T02:16:06.104Z,33.40
2018-02-18T02:18:34.270Z,33.30
2018-02-18T02:21:02.570Z,32.30
2018-02-18T02:23:30.953Z,32.67
2018-02-18T02:25:59.817Z,33.83
2018-02-18T02:28:28.098Z,33.25
2018-02-18T02:30:56.276Z,32.53
2018-02-18T02:33:24.617Z,32.53
2018-02-18T02:35:53.381Z,31.17
2018-02-18T02:38:22.036Z,28.90
2018-02-18T02:40:51.035Z,31.17
2018-02-18T02:43:20.216Z,30.45
2018-02-18T02:45:48.697Z,31.62
2018-02-18T02:48:16.816Z,31.60
2018-02-18T02:50:45.136Z,32.22
2018-02-18T02:53:13.436Z,31.23
2018-02-18T02:55:42.519Z,30.12
2018-02-18T02:58:10.836Z,30.40
2018-02-18T03:00:39.276Z,30.73
2018-02-18T03:03:08.976Z,31.92
2018-02-18T03:05:37.156Z,32.78
2018-02-18T03:08:05.536Z,30.83
2018-02-18T03:10:33.780Z,31.92
2018-02-18T03:13:02.096Z,29.70
2018-02-18T03:15:30.956Z,31.45
2018-02-18T03:17:59.336Z,30.35
2018-02-18T03:20:27.536Z,32.45
2018-02-18T03:22:56.296Z,31.90
2018-02-18T03:25:24.776Z,31.08
2018-02-18T03:27:52.976Z,33.00
2018-02-18T03:30:21.978Z,30.60
2018-02-18T03:32:51.036Z,30.58
2018-02-18T03:35:19.161Z,32.10
2018-02-18T03:37:47.180Z,34.97
2018-02-18T03:40:15.435Z,33.40
2018-02-18T03:42:43.636Z,33.15
2018-02-18T03:45:11.676Z,33.25
2018-02-18T03:47:39.976Z,33.40
2018-02-18T03:50:08.457Z,33.13
2018-02-18T03:52:37.156Z,33.75
2018-02-18T03:55:06.456Z,33.42
2018-02-18T03:57:35.636Z,33.83
2018-02-18T04:00:04.136Z,34.35
2018-02-18T04:02:33.316Z,31.77
2018-02-18T04:05:01.996Z,32.08
2018-02-18T04:07:30.256Z,32.70
2018-02-18T04:09:58.376Z,32.45
2018-02-18T04:12:27.536Z,33.40
2018-02-18T04:14:55.696Z,31.35
2018-02-18T04:17:23.895Z,32.08
2018-02-18T04:19:52.276Z,33.00
2018-02-18T04:22:21.256Z,30.33
2018-02-18T04:24:49.536Z,32.13
2018-02-18T04:27:17.896Z,30.90
2018-02-18T04:29:46.298Z,31.30
2018-02-18T04:32:14.463Z,33.95
2018-02-18T04:34:42.736Z,32.45
2018-02-18T04:37:11.116Z,31.65
2018-02-18T04:39:39.795Z,34.13
2018-02-18T04:42:07.976Z,30.73
2018-02-18T04:44:35.976Z,31.70
2018-02-18T04:47:04.316Z,34.50
2018-02-18T04:49:32.696Z,33.95
2018-02-18T04:52:00.856Z,31.27
2018-02-18T04:54:28.936Z,31.52
2018-02-18T04:56:57.218Z,32.10
2018-02-18T04:59:25.220Z,32.53
2018-02-18T05:01:53.555Z,31.73
2018-02-18T05:04:21.756Z,31.87
2018-02-18T05:06:51.036Z,31.30
2018-02-18T05:09:19.236Z,30.77
2018-02-18T05:11:48.317Z,30.10
2018-02-18T05:14:17.716Z,30.77
2018-02-18T05:16:46.796Z,31.35
2018-02-18T05:19:14.976Z,31.65
2018-02-18T05:21:43.356Z,31.62
2018-02-18T05:24:11.636Z,32.55
2018-02-18T05:26:40.616Z,31.40
2018-02-18T05:29:08.956Z,31.67
2018-02-18T05:31:37.358Z,30.85
2018-02-18T05:34:06.056Z,32.50
2018-02-18T05:36:35.156Z,32.38
2018-02-18T05:39:03.616Z,31.02
2018-02-18T05:41:32.037Z,30.35
2018-02-18T05:44:01.077Z,32.65
2018-02-18T05:46:29.276Z,31.90
2018-02-18T05:48:57.636Z,31.95
2018-02-18T05:51:25.816Z,31.25
2018-02-18T05:53:53.956Z,31.15
2018-02-18T05:56:22.036Z,30.60
2018-02-18T05:58:50.275Z,31.60
2018-02-18T06:01:18.616Z,32.17
2018-02-18T06:03:46.896Z,31.85
2018-02-18T06:06:15.176Z,30.25
2018-02-18T06:08:43.456Z,31.55
2018-02-18T06:11:12.532Z,30.00
2018-02-18T06:13:40.656Z,31.70
2018-02-18T06:16:08.896Z,32.45
2018-02-18T06:18:37.056Z,32.92
2018-02-18T06:21:05.237Z,29.55
2018-02-18T06:23:33.656Z,29.48
2018-02-18T06:26:01.916Z,31.12
2018-02-18T06:28:30.375Z,32.10
2018-02-18T06:30:59.476Z,30.42
2018-02-18T06:33:28.556Z,33.60
2018-02-18T06:35:57.136Z,30.42
2018-02-18T06:38:25.296Z,29.65
2018-02-18T06:40:53.596Z,31.92
2018-02-18T06:43:21.877Z,31.00
2018-02-18T06:45:50.955Z,31.48
2018-02-18T06:48:19.122Z,31.35
2018-02-18T06:50:47.276Z,30.73
2018-02-18T06:53:15.495Z,31.40
2018-02-18T06:55:44.536Z,32.42
2018-02-18T06:58:12.718Z,32.42
2018-02-18T07:00:40.876Z,32.70
2018-02-18T07:03:09.256Z,33.60
2018-02-18T07:05:37.456Z,36.47
2018-02-18T07:08:05.616Z,37.33
2018-02-18T07:10:33.916Z,33.67
2018-02-18T07:13:01.976Z,35.05
2018-02-18T07:15:30.256Z,36.17
2018-02-18T07:17:58.436Z,32.53
2018-02-18T07:20:26.476Z,34.63
2018-02-18T07:22:54.907Z,35.70
2018-02-18T07:25:23.876Z,31.52
2018-02-18T07:27:51.936Z,32.85
2018-02-18T07:30:20.216Z,32.45
2018-02-18T07:32:48.276Z,30.88
2018-02-18T07:35:16.456Z,31.27
2018-02-18T07:37:44.637Z,33.90
2018-02-18T07:40:12.936Z,31.75
2018-02-18T07:42:42.117Z,32.25
2018-02-18T07:45:11.216Z,32.65
2018-02-18T07:47:40.276Z,33.17
2018-02-18T07:50:08.535Z,34.90
2018-02-18T07:52:36.817Z,36.20
2018-02-18T07:55:05.116Z,32.90
2018-02-18T07:57:33.296Z,32.90
2018-02-18T08:00:01.776Z,32.38
2018-02-18T08:02:30.135Z,32.97
2018-02-18T08:04:58.496Z,33.22
2018-02-18T08:07:26.857Z,33.78
2018-02-18T08:09:55.315Z,30.90
2018-02-18T08:12:24.401Z,32.03
2018-02-18T08:14:53.277Z,31.30
2018-02-18T08:17:21.276Z,33.35
2018-02-18T08:19:49.616Z,32.08
2018-02-18T08:22:18.416Z,34.42
2018-02-18T08:24:47.356Z,32.63
2018-02-18T08:27:15.576Z,31.35
2018-02-18T08:29:44.656Z,33.60
2018-02-18T08:32:13.136Z,31.37
2018-02-18T08:34:41.315Z,33.35
2018-02-18T08:37:09.376Z,33.00
2018-02-18T08:39:37.556Z,33.38
2018-02-18T08:42:05.838Z,34.38
2018-02-18T08:44:34.418Z,34.90
2018-02-18T08:47:02.597Z,35.35
2018-02-18T08:49:30.656Z,33.17
2018-02-18T08:51:59.197Z,33.78
2018-02-18T08:54:27.516Z,33.67
2018-02-18T08:56:55.995Z,34.05
2018-02-18T08:59:24.476Z,36.50
2018-02-18T09:01:52.956Z,33.70
2018-02-18T09:04:21.756Z,33.47
2018-02-18T09:06:50.956Z,33.95
2018-02-18T09:09:19.898Z,30.58
2018-02-18T09:11:48.317Z,32.15
2018-02-18T09:14:16.597Z,31.42
2018-02-18T09:16:45.576Z,30.77
2018-02-18T09:19:14.077Z,29.08
2018-02-18T09:21:43.137Z,27.55
2018-02-18T09:24:11.436Z,28.33
2018-02-18T09:26:39.697Z,30.35
2018-02-18T09:29:07.877Z,28.90
2018-02-18T09:31:35.997Z,28.05
2018-02-18T09:34:03.997Z,29.90
2018-02-18T09:36:32.217Z,28.40
2018-02-18T09:39:01.277Z,27.58
2018-02-18T09:41:29.457Z,26.73
2018-02-18T09:43:57.836Z,27.40
2018-02-18T09:46:26.017Z,28.95
2018-02-18T09:48:53.979Z,26.83
2018-02-18T09:51:22.256Z,27.02
2018-02-18T09:53:50.436Z,29.67
2018-02-18T09:56:18.598Z,30.52
2018-02-18T09:58:46.776Z,28.73
2018-02-18T10:01:14.956Z,23.30
2018-02-18T10:03:44.038Z,28.62
2018-02-18T10:06:12.562Z,29.00
2018-02-18T10:08:41.217Z,27.98
2018-02-18T10:11:09.483Z,28.73
2018-02-18T10:13:38.076Z,27.77
2018-02-18T10:16:07.136Z,29.20
2018-02-18T10:18:35.457Z,27.05
2018-02-18T10:21:04.516Z,35.35
2018-02-18T10:23:33.017Z,26.65
2018-02-18T10:26:01.157Z,26.05
2018-02-18T10:28:29.676Z,26.90
2018-02-18T10:30:58.796Z,28.02
2018-02-18T10:33:27.136Z,28.50
2018-02-18T10:35:55.416Z,27.85
2018-02-18T10:38:23.536Z,27.80
2018-02-18T10:40:51.856Z,27.87
2018-02-18T10:43:19.797Z,27.80
2018-02-18T10:45:47.997Z,28.65
2018-02-18T10:48:16.238Z,28.42
2018-02-18T10:50:44.336Z,27.95
2018-02-18T10:53:12.616Z,28.27
2018-02-18T10:55:40.796Z,26.52
2018-02-18T10:58:08.756Z,28.55
2018-02-18T11:00:37.056Z,30.95
2018-02-18T11:03:05.916Z,28.48
2018-02-18T11:05:34.316Z,31.58
2018-02-18T11:08:03.395Z,28.73
2018-02-18T11:10:32.896Z,30.10
2018-02-18T11:13:01.276Z,30.58
2018-02-18T11:15:29.676Z,31.35
2018-02-18T11:17:59.197Z,29.52
2018-02-18T11:20:27.636Z,30.95
2018-02-18T11:22:56.016Z,32.20
2018-02-18T11:25:24.576Z,31.17
2018-02-18T11:27:52.916Z,30.12
2018-02-18T11:30:21.355Z,32.35
2018-02-18T11:32:50.336Z,31.17
2018-02-18T11:35:18.636Z,29.12
2018-02-18T11:37:47.617Z,30.80
2018-02-18T11:40:16.284Z,29.85
2018-02-18T11:42:44.456Z,31.15
2018-02-18T11:45:12.856Z,31.12
2018-02-18T11:47:41.016Z,29.52
2018-02-18T11:50:09.296Z,31.42
2018-02-18T11:52:38.916Z,31.50
2018-02-18T11:55:06.956Z,31.25
2018-02-18T11:57:35.156Z,30.37
2018-02-18T12:00:03.316Z,29.70
2018-02-18T12:02:31.358Z,30.50
2018-02-18T12:04:59.776Z,29.12
2018-02-18T12:07:27.817Z,28.75
2018-02-18T12:09:56.118Z,29.23
2018-02-18T12:12:24.395Z,30.35
2018-02-18T12:14:52.459Z,29.85
2018-02-18T12:17:20.696Z,28.05
2018-02-18T12:19:49.021Z,29.05
2018-02-18T12:22:18.095Z,29.50
2018-02-18T12:24:46.276Z,31.10
2018-02-18T12:27:14.584Z,31.50
2018-02-18T12:29:43.676Z,30.62
2018-02-18T12:32:12.716Z,29.25
2018-02-18T12:34:42.056Z,30.48
2018-02-18T12:37:11.477Z,29.08
2018-02-18T12:39:39.815Z,27.58
2018-02-18T12:42:08.399Z,26.60
2018-02-18T12:44:36.730Z,30.42
2018-02-18T12:47:04.937Z,31.45
2018-02-18T12:49:33.136Z,29.40
2018-02-18T12:52:02.316Z,30.33
2018-02-18T12:54:30.676Z,29.33
2018-02-18T12:56:59.796Z,29.20
2018-02-18T12:59:27.997Z,27.98
2018-02-18T13:01:57.076Z,26.40
2018-02-18T13:04:26.255Z,26.87
2018-02-18T13:06:54.536Z,28.23
2018-02-18T13:11:58.016Z,29.45
2018-02-18T13:14:26.368Z,30.77
2018-02-18T13:16:54.696Z,31.25
2018-02-18T13:19:22.975Z,31.20
2018-02-18T13:21:51.276Z,30.75
2018-02-18T13:24:20.376Z,30.10
2018-02-18T13:26:49.436Z,31.00
2018-02-18T13:29:17.616Z,30.00
2018-02-18T13:31:45.996Z,31.05
2018-02-18T13:34:14.276Z,29.40
2018-02-18T13:36:42.356Z,29.23
2018-02-18T13:39:11.643Z,30.17
2018-02-18T13:41:40.135Z,28.87
2018-02-18T13:44:09.477Z,29.17
2018-02-18T13:46:38.216Z,29.05
2018-02-18T13:49:07.296Z,27.77
2018-02-18T13:51:36.236Z,30.73
2018-02-18T13:54:05.004Z,29.25
2018-02-18T13:56:34.176Z,31.12
2018-02-18T13:59:02.538Z,30.37
2018-02-18T14:01:31.516Z,28.80
2018-02-18T14:03:59.817Z,29.67
2018-02-18T14:06:28.176Z,35.35
2018-02-18T14:08:56.357Z,30.25
2018-02-18T14:11:24.441Z,30.02
2018-02-18T14:13:52.856Z,29.67
2018-02-18T14:16:21.204Z,27.83
2018-02-18T14:18:49.375Z,28.85
2018-02-18T14:21:17.559Z,27.15
2018-02-18T14:23:46.742Z,25.73
2018-02-18T14:26:15.036Z,26.98
2018-02-18T14:28:44.116Z,27.95
2018-02-18T14:31:12.456Z,29.20
2018-02-18T14:33:40.776Z,28.52
2018-02-18T14:36:09.856Z,28.95
2018-02-18T14:38:38.139Z,22.20
2018-02-18T14:41:06.417Z,20.90
2018-02-18T14:43:46.356Z,23.02
2018-02-18T14:46:26.416Z,21.90
2018-02-18T14:49:06.196Z,21.17
2018-02-18T14:51:46.436Z,20.90
2018-02-18T14:54:39.916Z,22.92
2018-02-18T14:57:29.857Z,22.58
2018-02-18T14:59:58.356Z,22.15
2018-02-18T15:02:27.516Z,24.75
2018-02-18T15:04:55.716Z,22.77
2018-02-18T15:07:24.700Z,21.55
2018-02-18T15:09:53.096Z,21.67
2018-02-18T15:12:22.278Z,21.95
2018-02-18T15:14:50.499Z,21.92
2018-02-18T15:17:18.617Z,21.15
2018-02-18T15:19:46.796Z,22.85
2018-02-18T15:22:15.175Z,24.42
2018-02-18T15:24:43.456Z,24.52
2018-02-18T15:27:11.840Z,24.17
2018-02-18T15:29:41.140Z,25.40
2018-02-18T15:32:10.116Z,24.77
2018-02-18T15:34:38.404Z,22.70
2018-02-18T15:37:06.816Z,24.00
2018-02-18T15:39:35.156Z,22.30
2018-02-18T15:42:03.380Z,23.23
2018-02-18T15:44:31.596Z,24.30
2018-02-18T15:47:00.033Z,23.85
2018-02-18T15:49:28.457Z,23.87
2018-02-18T15:51:56.736Z,24.60
2018-02-18T15:54:24.897Z,28.33
2018-02-18T15:56:53.316Z,25.12
2018-02-18T15:59:21.536Z,24.20
2018-02-18T16:01:50.261Z,33.03
2018-02-18T16:04:19.296Z,22.58
2018-02-18T16:06:47.716Z,23.70
2018-02-18T16:09:16.616Z,26.40
2018-02-18T16:11:45.916Z,21.95
2018-02-18T16:14:14.237Z,23.42
2018-02-18T16:16:42.658Z,22.67
2018-02-18T16:19:10.936Z,23.20
2018-02-18T16:21:39.016Z,22.48
2018-02-18T16:24:08.196Z,22.75
2018-02-18T16:26:36.356Z,22.23
2018-02-18T16:29:04.556Z,23.08
2018-02-18T16:31:33.657Z,21.77
2018-02-18T16:34:02.536Z,23.48
2018-02-18T16:36:31.635Z,22.33
2018-02-18T16:39:00.616Z,22.85
2018-02-18T16:41:28.796Z,26.27
2018-02-18T16:43:57.176Z,25.23
2018-02-18T16:46:25.339Z,24.90
2018-02-18T16:48:53.536Z,27.17
2018-02-18T16:51:22.395Z,23.77
2018-02-18T16:53:50.556Z,21.65
2018-02-18T16:56:18.957Z,22.40
2018-02-18T16:58:47.335Z,21.37
2018-02-18T17:01:15.397Z,22.77
2018-02-18T17:03:43.576Z,24.23
2018-02-18T17:06:11.756Z,22.35
2018-02-18T17:08:40.236Z,22.27
2018-02-18T17:11:08.376Z,23.92
2018-02-18T17:13:36.676Z,24.05
2018-02-18T17:16:05.876Z,22.08
2018-02-18T17:18:34.156Z,22.48
2018-02-18T17:21:03.457Z,25.45
2018-02-18T17:23:31.796Z,25.00
2018-02-18T17:26:00.316Z,25.98
2018-02-18T17:28:28.456Z,27.00
2018-02-18T17:30:56.956Z,25.85
2018-02-18T17:33:25.416Z,24.87
2018-02-18T17:35:53.836Z,23.73
2018-02-18T17:38:23.257Z,24.12
2018-02-18T17:40:51.597Z,24.92
2018-02-18T17:43:19.616Z,28.50
2018-02-18T17:45:47.839Z,26.12
2018-02-18T17:48:16.017Z,24.87
2018-02-18T17:50:44.977Z,24.35
2018-02-18T17:53:13.277Z,24.98
2018-02-18T17:55:41.557Z,24.60
2018-02-18T17:58:09.996Z,25.40
2018-02-18T18:00:38.237Z,24.92
2018-02-18T18:03:07.296Z,27.92
2018-02-18T18:05:35.477Z,27.83
2018-02-18T18:08:03.557Z,24.25
2018-02-18T18:10:31.717Z,23.60
2018-02-18T18:12:59.897Z,24.33
2018-02-18T18:15:28.277Z,26.30
2018-02-18T18:17:56.331Z,26.33
2018-02-18T18:20:24.511Z,26.85
2018-02-18T18:22:52.912Z,26.80
2018-02-18T18:25:21.896Z,26.00
2018-02-18T18:27:50.132Z,25.55
2018-02-18T18:30:18.471Z,26.50
2018-02-18T18:32:46.551Z,24.50
2018-02-18T18:35:14.672Z,26.12
2018-02-18T18:37:42.993Z,25.90
2018-02-18T18:40:11.561Z,26.77
2018-02-18T18:42:40.759Z,23.12
2018-02-18T18:45:10.101Z,22.42
2018-02-18T18:47:38.421Z,24.80
2018-02-18T18:50:07.400Z,26.50
2018-02-18T18:52:35.839Z,24.33
2018-02-18T18:55:04.561Z,25.70
2018-02-18T18:57:32.820Z,27.77
2018-02-18T19:00:01.220Z,26.20
2018-02-18T19:02:29.479Z,28.50
2018-02-18T19:04:57.760Z,30.67
2018-02-18T19:07:26.060Z,38.72
2018-02-18T19:09:54.381Z,34.50
2018-02-18T19:12:22.482Z,32.70
2018-02-18T19:14:50.800Z,28.90
2018-02-18T19:17:19.642Z,29.33
2018-02-18T19:19:48.139Z,27.83
2018-02-18T19:22:16.420Z,25.27
2018-02-18T19:24:44.499Z,25.42
2018-02-18T19:27:13.600Z,25.50
2018-02-18T19:29:42.481Z,24.02
2018-02-18T19:32:10.640Z,23.55
2018-02-18T19:34:38.820Z,23.12
2018-02-18T19:37:07.300Z,24.98
2018-02-18T19:39:35.481Z,23.95
2018-02-18T19:42:03.639Z,25.42
2018-02-18T19:44:31.911Z,24.75
2018-02-18T19:47:00.260Z,24.60
2018-02-18T19:49:28.679Z,26.60
2018-02-18T19:51:57.581Z,25.23
2018-02-18T19:54:26.966Z,26.05
2018-02-18T19:56:55.259Z,25.60
2018-02-18T19:59:24.484Z,24.42
2018-02-18T20:01:52.780Z,27.08
2018-02-18T20:04:21.239Z,36.90
2018-02-18T20:06:49.781Z,27.85
2018-02-18T20:09:18.139Z,28.30
2018-02-18T20:11:46.562Z,29.73
2018-02-18T20:14:15.720Z,31.65
2018-02-18T20:16:44.222Z,31.20
2018-02-18T20:19:13.021Z,28.00
2018-02-18T20:21:41.981Z,28.60
2018-02-18T20:24:10.182Z,26.30
2018-02-18T20:26:38.999Z,29.33
2018-02-18T20:29:07.540Z,28.45
2018-02-18T20:31:35.799Z,30.37
2018-02-18T20:34:04.708Z,30.50
2018-02-18T20:36:33.720Z,27.75
2018-02-18T20:39:02.880Z,25.48
2018-02-18T20:41:31.260Z,24.63
2018-02-18T20:43:59.540Z,28.20
2018-02-18T20:46:27.921Z,27.45
2018-02-18T20:48:56.600Z,24.50
2018-02-18T20:51:24.985Z,25.85
2018-02-18T20:53:53.360Z,25.08
2018-02-18T20:56:21.960Z,25.40
2018-02-18T20:58:51.421Z,26.05
2018-02-18T21:01:19.779Z,29.52
2018-02-18T21:03:48.322Z,30.83
2018-02-18T21:06:17.661Z,32.97
2018-02-18T21:08:46.206Z,33.03
2018-02-18T21:11:15.527Z,28.33
2018-02-18T21:13:44.181Z,25.15
2018-02-18T21:16:13.580Z,24.27
2018-02-18T21:18:42.020Z,23.30
2018-02-18T21:21:10.340Z,23.20
2018-02-18T21:23:39.540Z,24.80
2018-02-18T21:26:09.042Z,23.35
2018-02-18T21:28:38.221Z,23.30
2018-02-18T21:31:06.380Z,20.98
2018-02-18T21:33:34.960Z,22.17
2018-02-18T21:36:03.139Z,21.40
2018-02-18T21:38:31.639Z,22.70
2018-02-18T21:41:00.779Z,23.73
2018-02-18T21:43:28.920Z,24.98
2018-02-18T21:45:58.163Z,26.70
2018-02-18T21:48:26.679Z,25.37
2018-02-18T21:50:55.060Z,27.10
2018-02-18T21:53:23.440Z,27.73
2018-02-18T21:55:51.499Z,29.08
2018-02-18T21:58:19.567Z,29.02
2018-02-18T22:00:47.761Z,27.90
2018-02-18T22:03:16.900Z,26.90
2018-02-18T22:05:45.561Z,28.65
2018-02-18T22:08:14.039Z,26.27
2018-02-18T22:10:43.220Z,27.35
2018-02-18T22:13:12.462Z,26.00
2018-02-18T22:15:40.881Z,26.23
2018-02-18T22:18:09.300Z,26.55
2018-02-18T22:20:37.839Z,26.45
2018-02-18T22:23:06.019Z,26.37
2018-02-18T22:25:34.561Z,27.70
2018-02-18T22:28:02.879Z,28.00
2018-02-18T22:30:31.039Z,27.50
2018-02-18T22:32:59.419Z,27.37
2018-02-18T22:35:27.800Z,26.90
2018-02-18T22:37:56.079Z,28.50
2018-02-18T22:40:24.459Z,27.42
2018-02-18T22:42:52.539Z,27.92
2018-02-18T22:45:21.340Z,28.15
2018-02-18T22:47:50.519Z,29.73
2018-02-18T22:50:18.799Z,26.92
2018-02-18T22:52:47.659Z,29.40
2018-02-18T22:55:15.779Z,28.10
2018-02-18T22:57:44.119Z,28.15
2018-02-18T23:00:18.539Z,28.65
2018-02-18T23:02:46.700Z,28.48
2018-02-18T23:05:20.559Z,28.38
2018-02-18T23:07:48.839Z,28.40
2018-02-18T23:10:16.959Z,28.80
2018-02-18T23:12:45.259Z,28.50
2018-02-18T23:15:14.239Z,27.52
2018-02-18T23:17:42.541Z,28.58
2018-02-18T23:20:11.640Z,27.98
2018-02-18T23:22:40.041Z,27.15
2018-02-18T23:25:08.800Z,27.40
2018-02-18T23:27:37.880Z,27.58
2018-02-18T23:30:06.959Z,28.33
2018-02-18T23:32:35.399Z,27.70
2018-02-18T23:35:03.601Z,27.62
2018-02-18T23:37:31.960Z,27.55
2018-02-18T23:40:00.408Z,25.65
2018-02-18T23:42:28.740Z,27.45
2018-02-18T23:44:57.221Z,26.48
2018-02-18T23:47:25.699Z,27.67
2018-02-18T23:49:54.059Z,27.65
2018-02-18T23:52:22.579Z,26.65
2018-02-18T23:54:51.660Z,29.02
2018-02-18T23:57:19.799Z,27.27
2018-02-18T23:59:47.919Z,29.27
